Time;durP1;ratioP1;P1;durP2;ratioP2;P2;SDS_P1;SDS_P2;PMS_P1;PMS_P2;Temp;Humidity;BMP_temperature;BMP_pressure;BME280_temperature;BME280_humidity;BME280_pressure;Samples;Min_cycle;Max_cycle;Signal;HPM_P1;HPM_P2
2022/01/08 00:00:55;;;;;;;;;;;;;;;-144.99;100.00;52664.16;4965578;28;19953;-71
2022/01/08 00:03:23;;;;;;;;;;;;;;;-144.99;100.00;52690.66;4948679;28;19927;-69
2022/01/08 00:05:49;;;;;;;;;;;;;;;-144.99;100.00;52658.03;4933940;28;19926;-69
2022/01/08 00:08:16;;;;;;;;;;;;;;;-144.99;100.00;52676.38;4942368;28;19927;-69
2022/01/08 00:10:42;;;;;;;;;;;;;;;-144.99;100.00;52709.00;4963547;28;19926;-69
2022/01/08 00:13:09;;;;;;;;;;;;;;;-144.99;100.00;52676.38;4955236;28;19933;-69
2022/01/08 00:15:36;;;;;;;;;;;;;;;-144.99;100.00;52709.00;4955615;28;20084;-69
2022/01/08 00:18:02;;;;;;;;;;;;;;;-144.99;100.00;52694.72;4955778;28;20021;-68
2022/01/08 00:20:30;;;;;;;;;;;;;;;-144.99;100.00;52643.78;4963592;28;19937;-71
2022/01/08 00:22:57;;;;;;;;;;;;;;;-144.99;100.00;52684.53;4950481;28;19997;-67
2022/01/08 00:25:23;;;;;;;;;;;;;;;-144.99;100.00;52741.63;4953322;28;19933;-68
2022/01/08 00:27:50;;;;;;;;;;;;;;;-144.99;100.00;52647.84;4953699;28;19927;-69
2022/01/08 00:30:16;;;;;;;;;;;;;;;-144.99;100.00;52660.09;4965521;28;19935;-68
2022/01/08 00:32:43;;;;;;;;;;;;;;;-144.99;100.00;52668.22;4957259;28;19934;-68
2022/01/08 00:35:10;;;;;;;;;;;;;;;-144.99;100.00;52713.09;4935778;28;19933;-67
2022/01/08 00:37:38;;;;;;;;;;;;;;;-144.99;100.00;52670.28;4953070;28;19930;-65
2022/01/08 00:40:05;;;;;;;;;;;;;;;-144.99;100.00;52700.84;4952569;28;19969;-66
2022/01/08 00:42:31;;;;;;;;;;;;;;;-144.99;100.00;52684.53;4953326;28;19933;-66
2022/01/08 00:44:58;;;;;;;;;;;;;;;-144.99;100.00;52698.81;4952997;28;19989;-65
2022/01/08 00:47:24;;;;;;;;;;;;;;;-144.99;100.00;52684.53;4952541;28;19937;-65
2022/01/08 00:49:50;;;;;;;;;;;;;;;-144.99;100.00;52678.44;4951449;28;19927;-65
2022/01/08 00:52:17;;;;;;;;;;;;;;;-144.99;100.00;52686.59;4950278;28;20380;-65
2022/01/08 00:54:45;;;;;;;;;;;;;;;-144.99;100.00;52641.72;4932703;28;19927;-65
2022/01/08 00:57:11;;;;;;;;;;;;;;;-144.99;100.00;52692.69;4950949;28;19927;-64
2022/01/08 00:59:37;;;;;;;;;;;;;;;-144.99;100.00;52704.94;4951586;28;20482;-64
2022/01/08 01:02:04;;;;;;;;;;;;;;;-144.99;100.00;52725.31;4953249;28;20422;-65
2022/01/08 01:04:30;;;;;;;;;;;;;;;-144.99;100.00;52688.63;4951718;28;19926;-65
2022/01/08 01:06:57;;;;;;;;;;;;;;;-144.99;100.00;52690.66;4952142;28;20387;-64
2022/01/08 01:09:24;;;;;;;;;;;;;;;-144.99;100.00;52641.72;4951485;28;20076;-63
2022/01/08 01:11:55;;;;;;;;;;;;;;;-144.99;100.00;52704.94;4953186;28;20375;-65
2022/01/08 01:14:23;;;;;;;;;;;;;;;-144.99;100.00;52702.88;4963498;28;19939;-63
2022/01/08 01:16:50;;;;;;;;;;;;;;;-144.99;100.00;52709.00;4932747;28;19927;-65
2022/01/08 01:19:16;;;;;;;;;;;;;;;-144.99;100.00;52662.13;4933290;28;19937;-65
2022/01/08 01:21:43;;;;;;;;;;;;;;;-144.99;100.00;52704.94;4961703;28;19932;-66
2022/01/08 01:24:14;;;;;;;;;;;;;;;-144.99;100.00;52713.09;4952370;28;19927;-63
2022/01/08 01:26:48;;;;;;;;;;;;;;;-144.99;100.00;52709.00;4951977;28;19961;-64
2022/01/08 01:29:29;;;;;;;;;;;;;;;-144.99;100.00;52696.78;4951535;28;19931;-64
2022/01/08 01:43:18;;;;;;;;;;;;;;;-144.99;100.00;52674.34;4952701;28;20441;-65
2022/01/08 01:48:27;;;;;;;;;;;;;;;-144.99;100.00;52696.78;4951821;29;19953;-67
2022/01/08 01:50:54;;;;;;;;;;;;;;;-144.99;100.00;52668.22;4958940;28;19926;-66
2022/01/08 01:53:20;;;;;;;;;;;;;;;-144.99;100.00;52664.16;4972126;28;19931;-65
2022/01/08 01:55:48;;;;;;;;;;;;;;;-144.99;100.00;52713.09;4957986;28;19927;-65
2022/01/08 01:58:15;;;;;;;;;;;;;;;-144.99;100.00;52680.47;4951156;28;19926;-65
2022/01/08 02:00:43;;;;;;;;;;;;;;;-144.99;100.00;52686.59;4950604;28;19927;-65
2022/01/08 02:03:11;;;;;;;;;;;;;;;-144.99;100.00;52721.22;4951421;28;19933;-67
2022/01/08 02:05:37;;;;;;;;;;;;;;;-144.99;100.00;52666.19;4956269;28;19949;-67
2022/01/08 02:08:04;;;;;;;;;;;;;;;-144.99;100.00;52635.63;4955179;28;19926;-68
2022/01/08 02:10:30;;;;;;;;;;;;;;;-144.99;100.00;52662.13;4959372;28;20168;-66
2022/01/08 02:12:57;;;;;;;;;;;;;;;-144.99;100.00;52649.88;4962262;28;20375;-67
2022/01/08 02:15:23;;;;;;;;;;;;;;;-144.99;100.00;52660.09;4967803;28;19926;-68
2022/01/08 02:17:49;;;;;;;;;;;;;;;-144.99;100.00;52692.69;4947371;28;19927;-69
2022/01/08 02:20:17;;;;;;;;;;;;;;;-144.99;100.00;52688.63;4962616;28;19999;-68
2022/01/08 02:22:43;;;;;;;;;;;;;;;-144.99;100.00;52660.09;4968662;28;20069;-68
2022/01/08 02:25:10;;;;;;;;;;;;;;;-144.99;100.00;52698.81;4969857;28;19931;-70
2022/01/08 02:27:36;;;;;;;;;;;;;;;-144.99;100.00;52651.94;4970545;28;19937;-66
2022/01/08 02:30:03;;;;;;;;;;;;;;;-144.99;100.00;52672.31;4950524;28;19933;-64
2022/01/08 02:32:31;;;;;;;;;;;;;;;-144.99;100.00;52647.84;4964420;28;20291;-65
2022/01/08 02:34:57;;;;;;;;;;;;;;;-144.99;100.00;52713.09;4950812;28;19949;-64
2022/01/08 02:37:30;;;;;;;;;;;;;;;-144.99;100.00;52688.63;4963705;23;19927;-57
2022/01/08 02:39:56;;;;;;;;;;;;;;;-144.99;100.00;52662.13;5009238;28;20369;-58
2022/01/08 02:42:25;;;;;;;;;;;;;;;-144.99;100.00;52662.13;4948044;28;20315;-59
2022/01/08 02:44:52;;;;;;;;;;;;;;;-144.99;100.00;52676.38;4949929;28;20305;-58
2022/01/08 02:47:18;;;;;;;;;;;;;;;-144.99;100.00;52660.09;4950206;28;20292;-58
2022/01/08 02:49:46;;;;;;;;;;;;;;;-144.99;100.00;52651.94;4950973;28;19927;-60
2022/01/08 02:52:12;;;;;;;;;;;;;;;-144.99;100.00;52670.28;4951130;28;19926;-56
2022/01/08 02:54:40;;;;;;;;;;;;;;;-144.99;100.00;52688.63;4950536;28;19927;-57
2022/01/08 02:57:06;;;;;;;;;;;;;;;-144.99;100.00;52692.69;4946391;28;19926;-56
2022/01/08 02:59:33;;;;;;;;;;;;;;;-144.99;100.00;52668.22;4950621;28;19927;-56
2022/01/08 03:01:59;;;;;;;;;;;;;;;-144.99;100.00;52696.78;4950321;28;19945;-55
2022/01/08 03:04:26;;;;;;;;;;;;;;;-144.99;100.00;52676.38;4950251;28;20006;-55
2022/01/08 03:06:52;;;;;;;;;;;;;;;-144.99;100.00;52660.09;4950132;29;20010;-55
2022/01/08 03:09:18;;;;;;;;;;;;;;;-144.99;100.00;52678.44;4950062;28;19934;-56
2022/01/08 03:11:46;;;;;;;;;;;;;;;-144.99;100.00;52690.66;4950173;28;19950;-57
2022/01/08 03:14:13;;;;;;;;;;;;;;;-144.99;100.00;52684.53;4950900;28;19927;-59
2022/01/08 03:16:39;;;;;;;;;;;;;;;-144.99;100.00;52664.16;4950658;28;19941;-57
2022/01/08 03:19:10;;;;;;;;;;;;;;;-144.99;100.00;52688.63;4949825;28;19927;-60
2022/01/08 03:21:38;;;;;;;;;;;;;;;-144.99;100.00;52651.94;4950991;28;19927;-61
2022/01/08 03:24:07;;;;;;;;;;;;;;;-144.99;100.00;52700.84;4947967;28;20314;-60
2022/01/08 03:26:33;;;;;;;;;;;;;;;-144.99;100.00;52709.00;4950464;28;19944;-61
2022/01/08 03:29:01;;;;;;;;;;;;;;;-144.99;100.00;52721.22;4950085;28;19953;-61
2022/01/08 03:31:27;;;;;;;;;;;;;;;-144.99;100.00;52662.13;4950431;28;19927;-61
2022/01/08 03:33:54;;;;;;;;;;;;;;;-144.99;100.00;52702.88;4950251;29;20209;-61
2022/01/08 03:36:22;;;;;;;;;;;;;;;-144.99;100.00;52700.84;4950271;28;19931;-62
2022/01/08 03:38:48;;;;;;;;;;;;;;;-144.99;100.00;52717.16;4949496;28;19931;-64
2022/01/08 03:41:15;;;;;;;;;;;;;;;-144.99;100.00;52670.28;4950404;28;19942;-63
2022/01/08 03:43:41;;;;;;;;;;;;;;;-144.99;100.00;52709.00;4949919;28;19931;-62
2022/01/08 03:46:10;;;;;;;;;;;;;;;-144.99;100.00;52670.28;4950141;28;19930;-63
2022/01/08 03:48:47;;;;;;;;;;;;;;;-144.99;100.00;52690.66;4950107;28;20007;-63
2022/01/08 03:51:15;;;;;;;;;;;;;;;-144.99;100.00;52651.94;4950374;28;20415;-61
2022/01/08 03:53:42;;;;;;;;;;;;;;;-144.99;100.00;52647.84;4949298;28;19926;-60
2022/01/08 03:56:08;;;;;;;;;;;;;;;-144.99;100.00;52721.22;4947987;28;19937;-60
2022/01/08 03:58:34;;;;;;;;;;;;;;;-144.99;100.00;52709.00;4949414;28;19942;-61
2022/01/08 04:01:01;;;;;;;;;;;;;;;-144.99;100.00;52674.34;4949867;28;20386;-62
2022/01/08 04:03:29;;;;;;;;;;;;;;;-144.99;100.00;52656.00;4948652;28;19926;-60
2022/01/08 04:05:55;;;;;;;;;;;;;;;-144.99;100.00;52704.94;4949615;28;20340;-62
2022/01/08 04:08:21;;;;;;;;;;;;;;;-144.99;100.00;52700.84;4950008;28;19934;-60
2022/01/08 04:10:48;;;;;;;;;;;;;;;-144.99;100.00;52700.84;4949402;29;19930;-62
2022/01/08 04:13:17;;;;;;;;;;;;;;;-144.99;100.00;52725.31;4949198;28;19933;-60
2022/01/08 04:15:46;;;;;;;;;;;;;;;-144.99;100.00;52684.53;4949263;28;19965;-60
2022/01/08 04:18:12;;;;;;;;;;;;;;;-144.99;100.00;52709.00;4947912;28;20295;-60
2022/01/08 04:20:50;;;;;;;;;;;;;;;-144.99;100.00;52682.50;4949066;28;19934;-59
2022/01/08 04:23:20;;;;;;;;;;;;;;;-144.99;100.00;52672.31;4949088;28;19930;-60
2022/01/08 04:25:47;;;;;;;;;;;;;;;-144.99;100.00;52660.09;4948938;28;20310;-60
2022/01/08 04:28:13;;;;;;;;;;;;;;;-144.99;100.00;52664.16;4948823;28;20385;-58
2022/01/08 04:30:40;;;;;;;;;;;;;;;-144.99;100.00;52664.16;4949383;28;19926;-60
2022/01/08 04:33:06;;;;;;;;;;;;;;;-144.99;100.00;52647.84;4949060;28;19949;-60
2022/01/08 04:35:32;;;;;;;;;;;;;;;-144.99;100.00;52672.31;4948424;28;20081;-60
2022/01/08 04:38:00;;;;;;;;;;;;;;;-144.99;100.00;52676.38;4948483;28;19927;-60
2022/01/08 04:40:27;;;;;;;;;;;;;;;-144.99;100.00;52684.53;4948747;28;19927;-58
2022/01/08 04:42:53;;;;;;;;;;;;;;;-144.99;100.00;52664.16;4948872;28;19930;-58
2022/01/08 04:45:21;;;;;;;;;;;;;;;-144.99;100.00;52643.78;4949020;28;19926;-58
2022/01/08 04:47:47;;;;;;;;;;;;;;;-144.99;100.00;52656.00;4948285;28;19926;-58
2022/01/08 04:50:14;;;;;;;;;;;;;;;-144.99;100.00;52688.63;4948103;28;19927;-58
2022/01/08 04:52:40;;;;;;;;;;;;;;;-144.99;100.00;52651.94;4949173;28;19926;-55
2022/01/08 04:55:08;;;;;;;;;;;;;;;-144.99;100.00;52668.22;4946404;28;20002;-58
2022/01/08 04:57:35;;;;;;;;;;;;;;;-144.99;100.00;52711.03;4944174;29;19927;-57
2022/01/08 05:00:01;;;;;;;;;;;;;;;-144.99;100.00;52688.63;4948630;28;19930;-57
2022/01/08 05:02:28;;;;;;;;;;;;;;;-144.99;100.00;52696.78;4948906;28;19930;-57
2022/01/08 05:04:54;;;;;;;;;;;;;;;-144.99;100.00;52660.09;4947865;28;19937;-56
2022/01/08 05:07:20;;;;;;;;;;;;;;;-144.99;100.00;52664.16;4948984;28;19927;-57
2022/01/08 05:09:47;;;;;;;;;;;;;;;-144.99;100.00;52643.78;4947642;28;19949;-58
2022/01/08 05:12:14;;;;;;;;;;;;;;;-144.99;100.00;52680.47;4948569;28;19937;-57
2022/01/08 05:14:42;;;;;;;;;;;;;;;-144.99;100.00;52668.22;4948146;28;19941;-57
2022/01/08 05:17:08;;;;;;;;;;;;;;;-144.99;100.00;52660.09;4948516;28;19938;-59
2022/01/08 05:19:42;;;;;;;;;;;;;;;-144.99;100.00;52656.00;4948041;28;19934;-58
2022/01/08 05:22:10;;;;;;;;;;;;;;;-144.99;100.00;52664.16;4947910;28;20490;-59
2022/01/08 05:24:37;;;;;;;;;;;;;;;-144.99;100.00;52658.03;4947417;28;20041;-60
2022/01/08 05:27:05;;;;;;;;;;;;;;;-144.99;100.00;52678.44;4947998;29;19936;-58
2022/01/08 05:29:33;;;;;;;;;;;;;;;-144.99;100.00;52643.78;4947901;28;19933;-60
2022/01/08 05:32:00;;;;;;;;;;;;;;;-144.99;100.00;52684.53;4947480;28;19926;-61
2022/01/08 05:34:26;;;;;;;;;;;;;;;-144.99;100.00;52680.47;4947665;28;19927;-59
2022/01/08 05:36:52;;;;;;;;;;;;;;;-144.99;100.00;52672.31;4948466;28;19933;-59
2022/01/08 05:39:19;;;;;;;;;;;;;;;-144.99;100.00;52643.78;4947490;28;19933;-59
2022/01/08 05:41:45;;;;;;;;;;;;;;;-144.99;100.00;52696.78;4947844;28;19926;-59
2022/01/08 05:44:11;;;;;;;;;;;;;;;-144.99;100.00;52692.69;4947814;28;19982;-60
2022/01/08 05:46:44;;;;;;;;;;;;;;;-144.99;100.00;52696.78;4948008;28;19938;-60
2022/01/08 05:49:10;;;;;;;;;;;;;;;-144.99;100.00;52662.13;4940065;28;19942;-59
2022/01/08 05:51:37;;;;;;;;;;;;;;;-144.99;100.00;52647.84;4947620;28;19926;-58
2022/01/08 05:54:03;;;;;;;;;;;;;;;-144.99;100.00;52645.81;4947119;28;20290;-59
2022/01/08 05:56:29;;;;;;;;;;;;;;;-144.99;100.00;52666.19;4947617;28;19957;-59
2022/01/08 05:58:56;;;;;;;;;;;;;;;-144.99;100.00;52684.53;4946976;28;19975;-58
2022/01/08 06:01:22;;;;;;;;;;;;;;;-144.99;100.00;52651.94;4947481;28;20371;-58
2022/01/08 06:03:49;;;;;;;;;;;;;;;-144.99;100.00;52676.38;4947028;28;19938;-57
2022/01/08 06:06:16;;;;;;;;;;;;;;;-144.99;100.00;52704.94;4947711;28;20374;-57
2022/01/08 06:08:42;;;;;;;;;;;;;;;-144.99;100.00;52684.53;4947292;28;20317;-59
2022/01/08 06:11:08;;;;;;;;;;;;;;;-144.99;100.00;52727.34;4947421;28;19935;-60
2022/01/08 06:13:35;;;;;;;;;;;;;;;-144.99;100.00;52647.84;4947596;28;19926;-58
2022/01/08 06:16:01;;;;;;;;;;;;;;;-144.99;100.00;52696.78;4947540;28;19938;-58
2022/01/08 06:18:28;;;;;;;;;;;;;;;-144.99;100.00;52680.47;4946971;28;19930;-59
2022/01/08 06:20:59;;;;;;;;;;;;;;;-144.99;100.00;52670.28;4947209;28;19938;-57
2022/01/08 06:23:25;;;;;;;;;;;;;;;-144.99;100.00;52647.84;4946286;28;19937;-58
2022/01/08 06:25:52;;;;;;;;;;;;;;;-144.99;100.00;52680.47;4947141;28;20318;-60
2022/01/08 06:28:18;;;;;;;;;;;;;;;-144.99;100.00;52672.31;4946969;28;19937;-57
2022/01/08 06:30:44;;;;;;;;;;;;;;;-144.99;100.00;52668.22;4947171;28;20007;-57
2022/01/08 06:33:11;;;;;;;;;;;;;;;-144.99;100.00;52684.53;4946742;28;19926;-59
2022/01/08 06:35:37;;;;;;;;;;;;;;;-144.99;100.00;52688.63;4946974;28;19930;-57
2022/01/08 06:38:05;;;;;;;;;;;;;;;-144.99;100.00;52700.84;4947228;28;20395;-63
2022/01/08 06:40:31;;;;;;;;;;;;;;;-144.99;100.00;52690.66;4946380;28;19934;-60
2022/01/08 06:42:57;;;;;;;;;;;;;;;-144.99;100.00;52676.38;4947497;28;19942;-61
2022/01/08 06:45:24;;;;;;;;;;;;;;;-144.99;100.00;52672.31;4947241;28;19926;-61
2022/01/08 06:47:50;;;;;;;;;;;;;;;-144.99;100.00;52696.78;4947333;28;20157;-60
2022/01/08 06:50:17;;;;;;;;;;;;;;;-144.99;100.00;52692.69;4947140;29;19926;-60
2022/01/08 06:52:43;;;;;;;;;;;;;;;-144.99;100.00;52684.53;4947349;28;20406;-60
2022/01/08 06:55:11;;;;;;;;;;;;;;;-144.99;100.00;52641.72;4945569;28;20415;-60
2022/01/08 06:57:38;;;;;;;;;;;;;;;-144.99;100.00;52662.13;4946912;28;20437;-60
2022/01/08 07:00:05;;;;;;;;;;;;;;;-144.99;100.00;52688.63;4947009;28;19927;-59
2022/01/08 07:02:31;;;;;;;;;;;;;;;-144.99;100.00;52647.84;4947356;28;19971;-59
2022/01/08 07:04:58;;;;;;;;;;;;;;;-144.99;100.00;52668.22;4946193;28;19946;-59
2022/01/08 07:07:24;;;;;;;;;;;;;;;-144.99;100.00;52688.63;4947241;28;20326;-58
2022/01/08 07:09:51;;;;;;;;;;;;;;;-144.99;100.00;52692.69;4946412;28;19927;-57
2022/01/08 07:12:18;;;;;;;;;;;;;;;-144.99;100.00;52647.84;4947035;28;19965;-58
2022/01/08 07:14:45;;;;;;;;;;;;;;;-144.99;100.00;52704.94;4947196;29;19926;-60
2022/01/08 07:17:11;;;;;;;;;;;;;;;-144.99;100.00;52664.16;4947170;28;19926;-59
2022/01/08 07:19:37;;;;;;;;;;;;;;;-144.99;100.00;52696.78;4947154;28;19927;-60
2022/01/08 07:22:04;;;;;;;;;;;;;;;-144.99;100.00;52700.84;4946426;28;19926;-59
2022/01/08 07:24:30;;;;;;;;;;;;;;;-144.99;100.00;52643.78;4945932;28;19930;-59
2022/01/08 07:26:57;;;;;;;;;;;;;;;-144.99;100.00;52692.69;4945861;28;19930;-60
2022/01/08 07:29:24;;;;;;;;;;;;;;;-144.99;100.00;52656.00;4946382;28;19953;-59
2022/01/08 07:31:50;;;;;;;;;;;;;;;-144.99;100.00;52680.47;4948531;28;19927;-59
2022/01/08 07:34:17;;;;;;;;;;;;;;;-144.99;100.00;52704.94;4949254;28;19926;-58
2022/01/08 07:36:43;;;;;;;;;;;;;;;-144.99;100.00;52670.28;4949098;28;20438;-58
2022/01/08 07:39:10;;;;;;;;;;;;;;;-144.99;100.00;52690.66;4949127;28;19953;-57
2022/01/08 07:41:36;;;;;;;;;;;;;;;-144.99;100.00;52706.97;4949729;28;19938;-57
2022/01/08 07:44:02;;;;;;;;;;;;;;;-144.99;100.00;52700.84;4947654;28;19926;-56
2022/01/08 07:46:30;;;;;;;;;;;;;;;-144.99;100.00;52660.09;4948998;28;19946;-58
2022/01/08 07:48:56;;;;;;;;;;;;;;;-144.99;100.00;52717.16;4949243;28;19930;-56
2022/01/08 07:51:23;;;;;;;;;;;;;;;-144.99;100.00;52647.84;4948734;28;19931;-57
2022/01/08 07:53:49;;;;;;;;;;;;;;;-144.99;100.00;52643.78;4948805;28;19934;-62
2022/01/08 07:56:15;;;;;;;;;;;;;;;-144.99;100.00;52692.69;4942402;28;20103;-60
2022/01/08 07:58:42;;;;;;;;;;;;;;;-144.99;100.00;52639.69;4949251;28;19927;-62
2022/01/08 08:01:08;;;;;;;;;;;;;;;-144.99;100.00;52684.53;4949373;28;20340;-59
2022/01/08 08:03:36;;;;;;;;;;;;;;;-144.99;100.00;52672.31;4949181;28;19930;-61
2022/01/08 08:06:02;;;;;;;;;;;;;;;-144.99;100.00;52696.78;4949203;28;19934;-61
2022/01/08 08:08:29;;;;;;;;;;;;;;;-144.99;100.00;52660.09;4948719;28;19961;-63
2022/01/08 08:10:55;;;;;;;;;;;;;;;-144.99;100.00;52706.97;4949806;28;19937;-66
2022/01/08 08:13:22;;;;;;;;;;;;;;;-144.99;100.00;52627.47;4949018;28;20505;-62
2022/01/08 08:15:49;;;;;;;;;;;;;;;-144.99;100.00;52713.09;4949306;28;19939;-63
2022/01/08 08:18:16;;;;;;;;;;;;;;;-144.99;100.00;52647.84;4949184;28;20025;-62
2022/01/08 08:20:43;;;;;;;;;;;;;;;-144.99;100.00;52651.94;4948702;28;19945;-63
2022/01/08 08:23:10;;;;;;;;;;;;;;;-144.99;100.00;52656.00;4946796;28;19927;-64
2022/01/08 08:25:37;;;;;;;;;;;;;;;-144.99;100.00;52684.53;4947557;28;19926;-64
2022/01/08 08:28:04;;;;;;;;;;;;;;;-144.99;100.00;52651.94;4948584;28;20303;-64
2022/01/08 08:30:30;;;;;;;;;;;;;;;-144.99;100.00;52672.31;4948733;28;20376;-61
2022/01/08 08:32:56;;;;;;;;;;;;;;;-144.99;100.00;52709.00;4948731;28;20017;-61
2022/01/08 08:35:23;;;;;;;;;;;;;;;-144.99;100.00;52635.63;4947819;28;19930;-63
2022/01/08 08:40:32;;;;;;;;;;;;;;;-144.99;100.00;52717.16;5067110;28;20384;-62
2022/01/08 08:42:59;;;;;;;;;;;;;;;-144.99;100.00;52676.38;5070943;28;19959;-62
2022/01/08 08:45:25;;;;;;;;;;;;;;;-144.99;100.00;52660.09;5070536;28;19924;-64
2022/01/08 08:47:51;;;;;;;;;;;;;;;-144.99;100.00;52651.94;5069855;28;19925;-63
2022/01/08 08:50:18;;;;;;;;;;;;;;;-144.99;100.00;52676.38;5071080;28;20019;-63
2022/01/08 08:52:44;;;;;;;;;;;;;;;-144.99;100.00;52647.84;5071118;28;19924;-64
2022/01/08 08:55:14;;;;;;;;;;;;;;;-144.99;100.00;52666.19;5068471;28;19928;-63
2022/01/08 08:57:41;;;;;;;;;;;;;;;-144.99;100.00;52660.09;5069675;28;19932;-64
2022/01/08 09:00:08;;;;;;;;;;;;;;;-144.99;100.00;52682.50;5070910;28;20026;-61
2022/01/08 09:02:34;;;;;;;;;;;;;;;-144.99;100.00;52635.63;5070541;28;19924;-62
2022/01/08 09:05:01;;;;;;;;;;;;;;;-144.99;100.00;52658.03;5070541;28;20032;-63
2022/01/08 09:07:28;;;;;;;;;;;;;;;-144.99;100.00;52680.47;5071020;28;20412;-64
2022/01/08 09:09:54;;;;;;;;;;;;;;;-144.99;100.00;52639.69;5070951;28;19929;-63
2022/01/08 09:12:22;;;;;;;;;;;;;;;-144.99;100.00;52680.47;5070609;28;19931;-62
2022/01/08 09:14:48;;;;;;;;;;;;;;;-144.99;100.00;52676.38;5070484;28;19924;-60
2022/01/08 09:17:15;;;;;;;;;;;;;;;-144.99;100.00;52656.00;5071296;28;19924;-62
2022/01/08 09:19:42;;;;;;;;;;;;;;;-144.99;100.00;52676.38;5068492;28;19924;-61
2022/01/08 09:22:09;;;;;;;;;;;;;;;-144.99;100.00;52631.53;5064288;28;20015;-61
2022/01/08 09:24:36;;;;;;;;;;;;;;;-144.99;100.00;52684.53;5067913;28;19924;-61
2022/01/08 09:27:03;;;;;;;;;;;;;;;-144.99;100.00;52709.00;5070548;28;19931;-61
2022/01/08 09:29:30;;;;;;;;;;;;;;;-144.99;100.00;52651.94;5068048;28;19928;-62
2022/01/08 09:31:57;;;;;;;;;;;;;;;-144.99;100.00;52664.16;5070703;28;20355;-61
2022/01/08 09:34:23;;;;;;;;;;;;;;;-144.99;100.00;52676.38;5069437;28;19928;-59
2022/01/08 09:36:50;;;;;;;;;;;;;;;-144.99;100.00;52672.31;5069404;28;20011;-60
2022/01/08 09:39:16;;;;;;;;;;;;;;;-144.99;100.00;52643.78;5070211;28;19925;-70
2022/01/08 09:41:43;;;;;;;;;;;;;;;-144.99;100.00;52680.47;5070884;28;19925;-72
2022/01/08 09:44:09;;;;;;;;;;;;;;;-144.99;100.00;52668.22;5070359;28;20266;-71
2022/01/08 09:46:37;;;;;;;;;;;;;;;-144.99;100.00;52684.53;5069991;28;19924;-73
2022/01/08 09:49:03;;;;;;;;;;;;;;;-144.99;100.00;52635.63;5067929;28;19928;-70
2022/01/08 09:51:30;;;;;;;;;;;;;;;-144.99;100.00;52631.53;5070421;28;19935;-65
2022/01/08 09:53:56;;;;;;;;;;;;;;;-144.99;99.38;52609.13;5068879;28;20024;-66
2022/01/08 09:56:25;;;;;;;;;;;;;;;-144.99;96.94;52649.88;5069969;28;20023;-67
2022/01/08 09:58:52;;;;;;;;;;;;;;;-144.99;95.02;52639.69;5070015;28;19924;-67
2022/01/08 10:01:25;;;;;;;;;;;;;;;-144.99;93.70;52627.47;5070624;28;19929;-68
2022/01/08 10:03:53;;;;;;;;;;;;;;;-144.99;89.72;52611.16;5069539;28;19924;-67
2022/01/08 10:06:23;;;;;;;;;;;;;;;-144.99;87.26;52615.25;5065151;28;19931;-66
2022/01/08 10:08:50;;;;;;;;;;;;;;;-144.99;85.05;52611.16;5069942;28;20333;-68
2022/01/08 10:11:16;;;;;;;;;;;;;;;-144.99;85.19;52611.16;5070551;28;19930;-69
2022/01/08 10:13:43;;;;;;;;;;;;;;;-144.99;87.76;52619.31;5069619;28;20392;-68
2022/01/08 10:18:55;;;;;;;;;;;;;;;-144.99;79.12;52558.16;5070078;28;19970;-69
2022/01/08 10:21:23;;;;;;;;;;;;;;;-144.99;74.92;52627.47;5070280;28;19925;-69
2022/01/08 10:23:51;;;;;;;;;;;;;;;-144.99;73.28;52594.84;5069846;28;19929;-66
2022/01/08 10:26:18;;;;;;;;;;;;;;;-144.99;72.60;52576.50;5069195;28;19932;-67
2022/01/08 10:28:45;;;;;;;;;;;;;;;-144.99;71.55;52578.53;5070049;28;19971;-69
2022/01/08 10:31:20;;;;;;;;;;;;;;;-144.99;70.58;52572.44;5069888;28;19933;-69
2022/01/08 10:33:48;;;;;;;;;;;;;;;-144.99;69.62;52607.09;5069494;28;19970;-70
2022/01/08 10:36:20;;;;;;;;;;;;;;;-144.99;69.43;52566.31;5069746;28;19929;-68
2022/01/08 10:38:49;;;;;;;;;;;;;;;-144.99;71.65;52600.97;5068366;28;20297;-69
2022/01/08 10:41:16;;;;;;;;;;;;;;;-144.99;74.43;52556.13;5069224;28;20306;-68
2022/01/08 10:43:42;;;;;;;;;;;;;;;-144.99;74.51;52578.53;5070322;28;19924;-70
2022/01/08 10:46:10;;;;;;;;;;;;;;;-144.99;75.22;52578.53;5069836;28;19956;-71
2022/01/08 10:48:37;;;;;;;;;;;;;;;-144.99;74.34;52598.94;5059987;28;19936;-70
2022/01/08 10:51:10;;;;;;;;;;;;;;;-144.99;72.65;52570.38;5069374;28;20006;-68
2022/01/08 10:53:58;;;;;;;;;;;;;;;-144.99;71.62;52590.78;5069778;28;19929;-68
2022/01/08 10:56:25;;;;;;;;;;;;;;;-144.99;72.76;52580.59;5064394;28;19925;-68
2022/01/08 10:58:55;;;;;;;;;;;;;;;-144.99;73.54;52541.84;5070403;28;19939;-69
2022/01/08 11:01:41;;;;;;;;;;;;;;;-144.99;72.30;52574.47;5070491;28;19975;-68
2022/01/08 11:04:08;;;;;;;;;;;;;;;-144.99;69.45;52525.56;5068705;28;19928;-68
2022/01/08 11:06:34;;;;;;;;;;;;;;;-144.99;67.68;52492.94;5073409;28;19925;-68
2022/01/08 11:09:03;;;;;;;;;;;;;;;-144.99;64.26;52550.00;5070814;28;19924;-67
2022/01/08 11:11:31;;;;;;;;;;;;;;;-144.99;63.61;52472.56;5073361;28;19932;-67
2022/01/08 11:14:03;;;;;;;;;;;;;;;-144.99;63.33;52529.63;5072847;28;19925;-67
2022/01/08 11:16:30;;;;;;;;;;;;;;;-144.99;61.07;52452.16;5072541;28;19932;-70
2022/01/08 11:18:56;;;;;;;;;;;;;;;-144.99;58.16;52519.44;5072451;28;19940;-69
2022/01/08 11:21:24;;;;;;;;;;;;;;;-144.99;58.03;52499.06;5072840;28;19924;-69
2022/01/08 11:23:50;;;;;;;;;;;;;;;-144.99;56.87;52517.41;5071588;28;19932;-68
2022/01/08 11:26:18;;;;;;;;;;;;;;;-144.99;57.74;52509.25;5072668;28;19925;-68
2022/01/08 11:28:47;;;;;;;;;;;;;;;-144.99;57.39;52509.25;5072759;28;19932;-68
2022/01/08 11:31:15;;;;;;;;;;;;;;;-144.99;57.21;52505.16;5072724;28;19924;-69
2022/01/08 11:33:45;;;;;;;;;;;;;;;-144.99;56.58;52468.47;5072492;28;19934;-72
2022/01/08 11:36:13;;;;;;;;;;;;;;;-144.99;55.44;52431.78;5073423;28;19946;-70
2022/01/08 11:38:43;;;;;;;;;;;;;;;-144.99;54.52;52480.72;5072394;28;19936;-69
2022/01/08 11:41:09;;;;;;;;;;;;;;;-144.99;53.79;52492.94;5073407;28;19932;-69
2022/01/08 11:43:38;;;;;;;;;;;;;;;-144.99;53.54;52444.03;5072508;28;19931;-69
2022/01/08 11:46:05;;;;;;;;;;;;;;;-144.99;52.33;52411.41;5071788;28;19935;-69
2022/01/08 11:48:33;;;;;;;;;;;;;;;-144.99;51.97;52456.25;5072588;28;20304;-69
2022/01/08 11:51:00;;;;;;;;;;;;;;;-144.99;51.96;52456.25;5073448;28;19929;-70
2022/01/08 11:53:27;;;;;;;;;;;;;;;-144.99;50.79;52439.94;5072285;28;19935;-72
2022/01/08 11:55:54;;;;;;;;;;;;;;;-144.99;49.40;52460.31;5065940;28;19925;-69
2022/01/08 11:58:23;;;;;;;;;;;;;;;-144.99;49.46;52482.75;5072343;28;19924;-69
2022/01/08 12:00:52;;;;;;;;;;;;;;;-144.99;52.04;52505.16;5072903;28;20270;-69
2022/01/08 12:03:22;;;;;;;;;;;;;;;-144.99;53.76;52547.97;5072335;28;20441;-68
2022/01/08 12:05:49;;;;;;;;;;;;;;;-144.99;55.64;52529.63;5072469;28;19932;-72
2022/01/08 12:08:17;;;;;;;;;;;;;;;-144.99;56.18;52582.63;5072809;28;19925;-69
2022/01/08 12:10:56;;;;;;;;;;;;;;;-144.99;57.23;52529.63;5072087;28;19946;-70
2022/01/08 12:13:37;;;;;;;;;;;;;;;-144.99;57.24;52517.41;5071389;28;20385;-68
2022/01/08 12:16:05;;;;;;;;;;;;;;;-144.99;56.35;52570.38;5071091;28;19925;-69
2022/01/08 12:18:53;;;;;;;;;;;;;;;-144.99;56.93;52554.09;5072461;28;20214;-71
2022/01/08 12:21:30;;;;;;;;;;;;;;;-144.99;57.70;52586.69;5072078;28;20408;-70
2022/01/08 12:23:59;;;;;;;;;;;;;;;-144.99;58.46;52590.78;5069869;28;19974;-72
2022/01/08 12:26:39;;;;;;;;;;;;;;;-144.99;60.10;52651.94;5071899;28;19932;-69
2022/01/08 12:29:05;;;;;;;;;;;;;;;-144.99;62.40;52643.78;5071997;28;19925;-69
2022/01/08 12:31:39;;;;;;;;;;;;;;;-144.99;63.81;52643.78;5072042;28;19924;-70
2022/01/08 12:34:32;;;;;;;;;;;;;;;-144.99;66.16;52678.44;5059029;28;20024;-69
2022/01/08 12:37:00;;;;;;;;;;;;;;;-144.99;68.79;52672.31;5037627;28;19935;-72
2022/01/08 12:39:26;;;;;;;;;;;;;;;-144.99;71.15;52635.63;5071354;28;19954;-69